createdAt,value
2022-09-21T00:01:46.907Z,56.72
2022-09-21T00:04:16.165Z,57.08
2022-09-21T00:06:44.782Z,56.50
2022-09-21T00:09:13.898Z,56.71
2022-09-21T00:11:43.126Z,56.70
2022-09-21T00:14:14.867Z,56.48
2022-09-21T00:16:44.852Z,56.98
2022-09-21T00:19:17.347Z,57.16
2022-09-21T00:21:45.873Z,57.17
2022-09-21T00:24:14.100Z,56.90
2022-09-21T00:26:42.867Z,56.79
2022-09-21T00:29:13.039Z,57.35
2022-09-21T00:31:41.497Z,56.67
2022-09-21T00:34:09.864Z,56.50
2022-09-21T00:36:40.300Z,57.27
2022-09-21T00:39:09.084Z,57.02
2022-09-21T00:41:37.397Z,57.08
2022-09-21T00:44:26.609Z,57.08
2022-09-21T00:46:58.135Z,56.67
2022-09-21T00:49:29.353Z,57.26
2022-09-21T00:52:05.110Z,57.05
2022-09-21T00:54:39.596Z,57.09
2022-09-21T00:57:09.298Z,56.74
2022-09-21T00:59:40.399Z,57.40
2022-09-21T01:02:08.813Z,57.16
2022-09-21T01:04:38.029Z,56.79
2022-09-21T01:07:12.785Z,57.27
2022-09-21T01:09:43.470Z,57.23
2022-09-21T01:12:27.952Z,56.73
2022-09-21T01:15:11.929Z,57.23
2022-09-21T01:17:48.198Z,56.84
2022-09-21T01:20:41.856Z,57.32
2022-09-21T01:23:36.425Z,57.37
2022-09-21T01:26:17.580Z,56.85
2022-09-21T01:29:14.071Z,57.33
2022-09-21T01:31:49.191Z,56.99
2022-09-21T01:34:25.801Z,57.52
2022-09-21T01:36:56.858Z,57.30
2022-09-21T01:39:27.796Z,57.48
2022-09-21T01:41:58.151Z,57.30
2022-09-21T01:44:33.569Z,57.30
2022-09-21T01:47:03.000Z,56.91
2022-09-21T01:49:36.664Z,56.70
2022-09-21T01:52:14.080Z,56.80
2022-09-21T01:54:48.707Z,56.93
2022-09-21T01:57:26.191Z,57.46
2022-09-21T01:59:59.082Z,57.31
2022-09-21T02:02:36.951Z,57.48
2022-09-21T02:05:07.904Z,57.41
2022-09-21T02:07:39.357Z,57.22
2022-09-21T02:10:13.096Z,57.07
2022-09-21T02:12:42.909Z,57.16
2022-09-21T02:15:13.532Z,57.30
2022-09-21T02:17:49.859Z,57.23
2022-09-21T02:20:24.946Z,57.28
2022-09-21T02:23:04.710Z,57.30
2022-09-21T02:25:43.629Z,57.60
2022-09-21T02:28:24.102Z,57.75
2022-09-21T02:31:01.115Z,57.47
2022-09-21T02:33:36.680Z,57.83
2022-09-21T02:36:11.128Z,57.13
2022-09-21T02:38:43.578Z,57.50
2022-09-21T02:41:18.901Z,57.70
2022-09-21T02:43:52.811Z,57.65
2022-09-21T02:46:29.144Z,57.17
2022-09-21T02:49:02.255Z,57.82
2022-09-21T02:51:34.466Z,57.72
2022-09-21T02:54:07.312Z,57.44
2022-09-21T02:56:37.456Z,57.56
2022-09-21T02:59:08.693Z,57.59
2022-09-21T03:01:41.953Z,57.69
2022-09-21T03:04:11.141Z,57.73
2022-09-21T03:06:39.831Z,57.76
2022-09-21T03:09:08.470Z,57.81
2022-09-21T03:11:38.609Z,57.75
2022-09-21T03:14:08.947Z,57.67
2022-09-21T03:16:39.715Z,57.96
2022-09-21T03:19:08.487Z,57.51
2022-09-21T03:21:39.217Z,57.74
2022-09-21T03:24:10.863Z,57.89
2022-09-21T03:26:39.597Z,57.42
2022-09-21T03:29:08.650Z,57.74
2022-09-21T03:31:38.919Z,57.88
2022-09-21T03:34:07.718Z,57.66
2022-09-21T03:36:35.820Z,58.00
2022-09-21T03:39:04.728Z,57.65
2022-09-21T03:41:33.441Z,57.58
2022-09-21T03:44:01.566Z,57.36
2022-09-21T03:46:30.346Z,57.70
2022-09-21T03:49:00.046Z,57.62
2022-09-21T03:51:28.359Z,57.84
2022-09-21T03:53:57.625Z,57.92
2022-09-21T03:56:26.758Z,57.98
2022-09-21T03:58:54.887Z,57.94
2022-09-21T04:01:23.985Z,57.58
2022-09-21T04:03:52.869Z,57.55
2022-09-21T04:06:22.709Z,57.79
2022-09-21T04:08:53.984Z,57.71
2022-09-21T04:11:23.634Z,57.82
2022-09-21T04:13:57.504Z,58.01
2022-09-21T04:16:26.863Z,57.91
2022-09-21T04:18:55.555Z,57.83
2022-09-21T04:21:25.745Z,57.80
2022-09-21T04:23:54.627Z,57.85
2022-09-21T04:26:25.351Z,58.02
2022-09-21T04:28:55.725Z,58.12
2022-09-21T04:31:24.523Z,58.02
2022-09-21T04:33:54.399Z,58.10
2022-09-21T04:36:25.833Z,58.10
2022-09-21T04:38:53.854Z,57.96
2022-09-21T04:41:22.264Z,58.00
2022-09-21T04:43:50.946Z,58.29
2022-09-21T04:46:25.489Z,58.21
2022-09-21T04:48:53.931Z,58.14
2022-09-21T04:51:21.835Z,58.40
2022-09-21T04:53:51.344Z,58.43
2022-09-21T04:56:19.817Z,58.30
2022-09-21T04:58:47.782Z,57.86
2022-09-21T05:01:16.302Z,57.93
2022-09-21T05:03:44.222Z,57.84
2022-09-21T05:06:13.556Z,57.99
2022-09-21T05:09:00.127Z,58.09
2022-09-21T05:11:29.485Z,57.87
2022-09-21T05:13:57.860Z,58.03
2022-09-21T05:16:25.734Z,58.10
2022-09-21T05:18:55.405Z,58.65
2022-09-21T05:21:24.079Z,58.37
2022-09-21T05:23:52.084Z,58.33
2022-09-21T05:26:20.083Z,58.62
2022-09-21T05:28:50.704Z,58.54
2022-09-21T05:31:32.095Z,58.48
2022-09-21T05:34:06.709Z,58.51
2022-09-21T05:36:46.841Z,58.61
2022-09-21T05:39:15.867Z,58.44
2022-09-21T05:41:44.441Z,58.52
2022-09-21T05:44:16.772Z,58.55
2022-09-21T05:46:56.074Z,58.65
2022-09-21T05:49:35.276Z,59.05
2022-09-21T05:52:11.010Z,58.67
2022-09-21T05:54:51.693Z,59.33
2022-09-21T05:57:35.298Z,58.81
2022-09-21T06:00:16.250Z,59.09
2022-09-21T06:03:07.306Z,59.16
2022-09-21T06:05:35.947Z,59.22
2022-09-21T06:08:04.174Z,59.29
2022-09-21T06:10:36.904Z,59.27
2022-09-21T06:13:05.325Z,59.58
2022-09-21T06:15:38.936Z,59.70
2022-09-21T06:18:07.444Z,59.76
2022-09-21T06:20:36.319Z,60.21
2022-09-21T06:23:05.379Z,60.15
2022-09-21T06:25:33.972Z,60.35
2022-09-21T06:28:06.221Z,60.29
2022-09-21T06:30:36.389Z,60.54
2022-09-21T06:33:06.746Z,60.73
2022-09-21T06:35:37.211Z,60.82
2022-09-21T06:38:08.869Z,60.98
2022-09-21T06:40:38.803Z,61.07
2022-09-21T06:43:07.715Z,61.29
2022-09-21T06:45:38.321Z,61.49
2022-09-21T06:48:06.934Z,61.80
2022-09-21T06:50:39.091Z,61.75
2022-09-21T06:53:07.920Z,61.62
2022-09-21T06:55:36.732Z,61.74
2022-09-21T06:58:06.097Z,61.89
2022-09-21T07:00:37.171Z,62.51
2022-09-21T07:03:05.845Z,62.21
2022-09-21T07:05:34.141Z,62.06
2022-09-21T07:08:03.908Z,62.33
2022-09-21T07:10:32.462Z,62.39
2022-09-21T07:13:05.341Z,62.00
2022-09-21T07:15:34.355Z,62.36
2022-09-21T07:18:12.319Z,62.07
2022-09-21T07:20:41.240Z,62.66
2022-09-21T07:23:15.386Z,62.26
2022-09-21T07:25:44.278Z,62.31
2022-09-21T07:28:12.944Z,62.62
2022-09-21T07:30:42.630Z,62.34
2022-09-21T07:33:12.598Z,62.79
2022-09-21T07:35:41.829Z,63.15
2022-09-21T07:38:10.326Z,63.29
2022-09-21T07:40:38.652Z,63.75
2022-09-21T07:43:08.497Z,64.16
2022-09-21T07:45:36.803Z,64.35
2022-09-21T07:48:05.956Z,64.14
2022-09-21T07:50:35.696Z,63.95
2022-09-21T07:53:05.389Z,63.55
2022-09-21T07:55:33.596Z,63.38
2022-09-21T07:58:19.992Z,63.31
2022-09-21T08:00:47.826Z,63.58
2022-09-21T08:03:15.709Z,63.21
2022-09-21T08:05:45.065Z,64.28
2022-09-21T08:08:13.053Z,63.53
2022-09-21T08:10:41.021Z,63.20
2022-09-21T08:13:08.734Z,62.44
2022-09-21T08:15:49.204Z,62.47
2022-09-21T08:18:17.770Z,63.01
2022-09-21T08:20:55.234Z,62.66
2022-09-21T08:23:23.065Z,62.74
2022-09-21T08:25:51.136Z,62.71
2022-09-21T08:28:19.165Z,62.25
2022-09-21T08:30:46.938Z,63.30
2022-09-21T08:33:14.942Z,60.74
2022-09-21T08:35:43.807Z,60.03
2022-09-21T08:38:12.936Z,60.56
2022-09-21T08:40:42.281Z,60.48
2022-09-21T08:43:14.306Z,59.85
2022-09-21T08:45:45.237Z,59.22
2022-09-21T08:48:22.903Z,59.22
2022-09-21T08:50:58.168Z,58.38
2022-09-21T08:53:33.709Z,56.92
2022-09-21T08:56:02.908Z,56.60
2022-09-21T08:58:32.726Z,56.02
2022-09-21T09:01:20.996Z,55.96
2022-09-21T09:04:05.972Z,56.54
2022-09-21T09:06:43.400Z,55.20
2022-09-21T09:09:27.760Z,55.12
2022-09-21T09:12:11.389Z,55.56
2022-09-21T09:14:54.424Z,54.80
2022-09-21T09:17:34.803Z,54.69
2022-09-21T09:20:06.785Z,53.96
2022-09-21T09:22:41.669Z,52.73
2022-09-21T09:25:20.663Z,53.08
2022-09-21T09:27:51.935Z,52.21
2022-09-21T09:30:23.096Z,52.84
2022-09-21T09:32:57.752Z,52.12
2022-09-21T09:35:31.242Z,52.24
2022-09-21T09:38:05.246Z,52.52
2022-09-21T09:40:54.476Z,53.13
2022-09-21T09:43:32.618Z,52.17
2022-09-21T09:46:12.930Z,52.10
2022-09-21T09:49:06.750Z,50.58
2022-09-21T09:51:40.869Z,51.51
2022-09-21T09:54:15.197Z,51.59
2022-09-21T09:56:45.398Z,48.79
2022-09-21T09:59:24.980Z,48.13
2022-09-21T10:02:02.065Z,49.08
2022-09-21T10:04:30.825Z,49.06
2022-09-21T10:06:58.685Z,47.96
2022-09-21T10:09:29.333Z,49.04
2022-09-21T10:12:09.538Z,48.85
2022-09-21T10:14:38.168Z,49.12
2022-09-21T10:17:09.496Z,49.20
2022-09-21T10:19:38.194Z,48.51
2022-09-21T10:22:07.325Z,47.82
2022-09-21T10:24:40.629Z,47.34
2022-09-21T10:27:15.638Z,45.86
2022-09-21T10:29:44.687Z,47.16
2022-09-21T10:32:22.639Z,46.43
2022-09-21T10:35:18.150Z,46.91
2022-09-21T10:37:49.110Z,45.75
2022-09-21T10:40:30.760Z,46.58
2022-09-21T10:43:01.965Z,46.80
2022-09-21T10:45:31.297Z,46.45
2022-09-21T10:48:00.911Z,45.44
2022-09-21T10:50:30.713Z,46.38
2022-09-21T10:53:02.616Z,45.55
2022-09-21T10:55:32.833Z,46.48
2022-09-21T10:58:02.167Z,45.58
2022-09-21T11:00:39.385Z,46.55
2022-09-21T11:03:42.937Z,47.21
2022-09-21T11:06:17.461Z,46.48
2022-09-21T11:08:50.299Z,47.56
2022-09-21T11:11:42.807Z,47.72
2022-09-21T11:14:28.816Z,47.26
2022-09-21T11:16:59.274Z,47.51
2022-09-21T11:19:36.283Z,47.50
2022-09-21T11:22:13.433Z,47.06
2022-09-21T11:24:49.167Z,46.63
2022-09-21T11:27:22.703Z,45.49
2022-09-21T11:30:01.787Z,46.06
2022-09-21T11:32:59.607Z,46.36
2022-09-21T11:35:44.706Z,46.81
2022-09-21T11:38:20.698Z,47.17
2022-09-21T11:41:15.032Z,48.17
2022-09-21T11:44:16.221Z,47.90
2022-09-21T11:46:53.170Z,46.09
2022-09-21T11:49:37.391Z,46.76
2022-09-21T11:52:20.350Z,46.91
2022-09-21T11:55:02.446Z,46.43
2022-09-21T11:57:36.586Z,46.94
2022-09-21T12:00:16.321Z,45.63
2022-09-21T12:03:23.663Z,45.96
2022-09-21T12:06:07.012Z,46.41
2022-09-21T12:08:50.137Z,44.92
2022-09-21T12:11:30.732Z,45.04
2022-09-21T12:14:07.792Z,44.94
2022-09-21T12:16:43.523Z,44.97
2022-09-21T12:19:20.277Z,45.56
2022-09-21T12:21:53.510Z,45.79
2022-09-21T12:24:28.544Z,46.41
2022-09-21T12:27:04.979Z,46.35
2022-09-21T12:29:47.304Z,45.78
2022-09-21T12:32:23.129Z,45.67
2022-09-21T12:34:56.777Z,45.72
2022-09-21T12:37:32.230Z,44.54
2022-09-21T12:40:02.280Z,46.67
2022-09-21T12:42:35.395Z,44.33
2022-09-21T12:45:09.045Z,44.31
2022-09-21T12:47:48.891Z,44.73
2022-09-21T12:50:22.131Z,43.84
2022-09-21T12:52:53.430Z,43.82
2022-09-21T12:55:33.509Z,42.15
2022-09-21T12:58:16.713Z,41.99
2022-09-21T13:00:53.815Z,41.95
2022-09-21T13:03:30.063Z,42.30
2022-09-21T13:06:23.773Z,42.04
2022-09-21T13:08:54.421Z,41.27
2022-09-21T13:11:23.443Z,42.03
2022-09-21T13:14:00.111Z,41.66
2022-09-21T13:16:31.018Z,41.46
2022-09-21T13:19:01.812Z,41.45
2022-09-21T13:21:31.368Z,41.57
2022-09-21T13:24:03.603Z,40.55
2022-09-21T13:26:40.085Z,41.41
2022-09-21T13:29:31.904Z,42.43
2022-09-21T13:32:01.484Z,41.60
2022-09-21T13:34:32.801Z,41.77
2022-09-21T13:37:30.380Z,41.59
2022-09-21T13:40:42.938Z,42.51
2022-09-21T13:43:47.180Z,42.97
2022-09-21T13:46:53.869Z,42.67
2022-09-21T13:49:25.074Z,43.55
2022-09-21T13:51:57.391Z,44.16
2022-09-21T13:54:30.901Z,44.79
2022-09-21T13:57:09.024Z,44.20
2022-09-21T13:59:40.729Z,45.06
2022-09-21T14:02:25.351Z,45.16
2022-09-21T14:04:53.565Z,45.43
2022-09-21T14:07:21.630Z,45.05
2022-09-21T14:09:57.951Z,45.39
2022-09-21T14:12:29.567Z,45.24
2022-09-21T14:15:27.372Z,45.82
2022-09-21T14:18:21.433Z,45.70
2022-09-21T14:21:14.303Z,46.15
2022-09-21T14:23:42.165Z,46.47
2022-09-21T14:26:24.628Z,46.77
2022-09-21T14:28:54.400Z,46.53
2022-09-21T14:31:29.296Z,46.01
2022-09-21T14:34:01.078Z,45.37
2022-09-21T14:36:41.420Z,44.40
2022-09-21T14:39:20.377Z,43.53
2022-09-21T14:41:51.905Z,43.27
2022-09-21T14:44:22.708Z,41.67
2022-09-21T14:47:30.506Z,39.86
2022-09-21T14:50:21.888Z,39.41
2022-09-21T14:53:12.582Z,40.44
2022-09-21T14:56:10.323Z,41.47
2022-09-21T14:58:52.126Z,41.55
2022-09-21T15:01:27.452Z,40.44
2022-09-21T15:04:03.634Z,42.33
2022-09-21T15:06:53.964Z,41.33
2022-09-21T15:09:54.853Z,42.18
2022-09-21T15:12:32.347Z,40.20
2022-09-21T15:15:13.192Z,40.81
2022-09-21T15:17:57.271Z,41.67
2022-09-21T15:20:30.615Z,41.49
2022-09-21T15:23:00.141Z,41.63
2022-09-21T15:25:32.040Z,41.34
2022-09-21T15:28:00.955Z,40.98
2022-09-21T15:30:33.142Z,40.88
2022-09-21T15:33:03.267Z,40.22
2022-09-21T15:35:34.555Z,39.90
2022-09-21T15:38:02.426Z,39.87
2022-09-21T15:40:33.054Z,40.34
2022-09-21T15:43:03.908Z,40.13
2022-09-21T15:45:37.355Z,40.24
2022-09-21T15:48:09.208Z,40.19
2022-09-21T15:50:39.509Z,40.21
2022-09-21T15:53:14.695Z,40.29
2022-09-21T15:55:48.688Z,41.26
2022-09-21T15:58:26.683Z,41.50
2022-09-21T16:00:57.164Z,41.85
2022-09-21T16:03:27.107Z,42.23
2022-09-21T16:06:00.679Z,42.49
2022-09-21T16:08:31.637Z,42.56
2022-09-21T16:11:19.237Z,43.17
2022-09-21T16:14:06.037Z,44.87
2022-09-21T16:16:34.585Z,45.08
2022-09-21T16:19:02.461Z,45.13
2022-09-21T16:21:34.589Z,45.84
2022-09-21T16:24:12.629Z,45.42
2022-09-21T16:26:41.799Z,46.70
2022-09-21T16:29:23.571Z,46.59
2022-09-21T16:31:52.205Z,47.47
2022-09-21T16:34:22.862Z,47.97
2022-09-21T16:36:55.156Z,47.86
2022-09-21T16:39:23.616Z,48.89
2022-09-21T16:42:00.373Z,48.33
2022-09-21T16:44:31.517Z,48.88
2022-09-21T16:47:01.850Z,49.40
2022-09-21T16:49:32.668Z,49.90
2022-09-21T16:52:02.548Z,49.46
2022-09-21T16:54:31.024Z,50.24
2022-09-21T16:57:00.497Z,50.17
2022-09-21T16:59:29.598Z,50.66
2022-09-21T17:01:59.281Z,51.05
2022-09-21T17:04:30.130Z,51.22
2022-09-21T17:06:58.380Z,51.28
2022-09-21T17:09:31.847Z,51.42
2022-09-21T17:12:01.208Z,51.77
2022-09-21T17:14:33.053Z,52.04
2022-09-21T17:17:01.096Z,51.96
2022-09-21T17:19:29.396Z,52.02
2022-09-21T17:21:57.103Z,52.23
2022-09-21T17:24:46.302Z,52.33
2022-09-21T17:27:18.040Z,52.31
2022-09-21T17:29:48.265Z,52.42
2022-09-21T17:32:18.307Z,52.54
2022-09-21T17:34:46.111Z,52.62
2022-09-21T17:37:14.320Z,52.92
2022-09-21T17:39:43.005Z,53.10
2022-09-21T17:42:19.511Z,52.94
2022-09-21T17:45:12.448Z,52.80
2022-09-21T17:47:41.400Z,53.06
2022-09-21T17:50:24.535Z,52.92
2022-09-21T17:53:10.868Z,52.90
2022-09-21T17:55:40.336Z,53.06
2022-09-21T17:58:37.760Z,52.96
2022-09-21T18:01:09.341Z,53.23
2022-09-21T18:03:41.029Z,53.37
2022-09-21T18:06:10.709Z,53.43
2022-09-21T18:08:40.070Z,53.70
2022-09-21T18:11:29.104Z,53.29
2022-09-21T18:14:08.830Z,53.64
2022-09-21T18:16:49.413Z,53.61
2022-09-21T18:19:36.572Z,53.54
2022-09-21T18:22:14.076Z,53.64
2022-09-21T18:24:42.875Z,53.59
2022-09-21T18:27:12.941Z,53.95
2022-09-21T18:29:41.955Z,54.03
2022-09-21T18:32:26.851Z,53.95
2022-09-21T18:35:15.078Z,53.68
2022-09-21T18:37:53.520Z,53.97
2022-09-21T18:40:29.678Z,53.77
2022-09-21T18:43:06.069Z,54.30
2022-09-21T18:45:39.089Z,54.05
2022-09-21T18:48:21.440Z,54.30
2022-09-21T18:50:58.974Z,54.39
2022-09-21T18:53:34.447Z,54.32
2022-09-21T18:56:02.804Z,53.46
2022-09-21T18:58:31.197Z,54.06
2022-09-21T19:01:00.330Z,53.98
2022-09-21T19:03:30.766Z,54.16
2022-09-21T19:06:22.282Z,54.27
2022-09-21T19:08:59.315Z,54.35
2022-09-21T19:11:34.774Z,54.25
2022-09-21T19:14:12.521Z,54.25
2022-09-21T19:16:55.644Z,54.45
2022-09-21T19:19:37.477Z,54.43
2022-09-21T19:22:15.627Z,54.32
2022-09-21T19:24:55.999Z,54.35
2022-09-21T19:27:31.117Z,54.31
2022-09-21T19:30:05.945Z,54.70
2022-09-21T19:32:39.949Z,54.52
2022-09-21T19:35:20.570Z,54.42
2022-09-21T19:37:49.289Z,54.92
2022-09-21T19:40:18.912Z,54.58
2022-09-21T19:43:06.756Z,54.35
2022-09-21T19:45:45.487Z,54.43
2022-09-21T19:48:16.080Z,54.53
2022-09-21T19:50:50.957Z,54.95
2022-09-21T19:53:37.304Z,54.79
2022-09-21T19:56:28.771Z,54.70
2022-09-21T19:59:15.356Z,54.67
2022-09-21T20:01:52.606Z,54.70
2022-09-21T20:04:28.300Z,54.51
2022-09-21T20:07:03.326Z,55.19
2022-09-21T20:09:40.007Z,55.05
2022-09-21T20:12:17.264Z,55.28
2022-09-21T20:14:51.730Z,54.92
2022-09-21T20:17:23.033Z,54.83
2022-09-21T20:19:57.643Z,54.63
2022-09-21T20:22:33.821Z,54.74
2022-09-21T20:25:08.023Z,54.93
2022-09-21T20:27:40.068Z,54.71
2022-09-21T20:30:11.428Z,55.15
2022-09-21T20:32:42.466Z,55.08
2022-09-21T20:35:16.989Z,54.59
2022-09-21T20:37:46.980Z,54.82
2022-09-21T20:40:16.175Z,55.22
2022-09-21T20:42:44.580Z,54.78
2022-09-21T20:45:13.996Z,55.28
2022-09-21T20:47:42.956Z,55.44
2022-09-21T20:50:13.640Z,55.02
2022-09-21T20:52:42.839Z,55.33
2022-09-21T20:55:14.036Z,55.21
2022-09-21T20:57:42.661Z,55.40
2022-09-21T21:00:13.410Z,55.42
2022-09-21T21:02:41.657Z,54.84
2022-09-21T21:05:11.714Z,55.30
2022-09-21T21:07:44.291Z,54.98
2022-09-21T21:10:16.639Z,55.04
2022-09-21T21:12:44.901Z,55.36
2022-09-21T21:15:13.687Z,55.09
2022-09-21T21:17:42.791Z,55.42
2022-09-21T21:20:12.425Z,55.29
2022-09-21T21:22:40.496Z,55.06
2022-09-21T21:25:09.465Z,55.13
2022-09-21T21:27:38.872Z,54.99
2022-09-21T21:30:08.623Z,55.21
2022-09-21T21:32:37.709Z,55.41
2022-09-21T21:35:07.947Z,55.38
2022-09-21T21:37:36.669Z,55.04
2022-09-21T21:40:04.918Z,55.30
2022-09-21T21:42:32.715Z,55.68
2022-09-21T21:45:03.564Z,55.72
2022-09-21T21:47:40.201Z,55.89
2022-09-21T21:50:10.123Z,55.75
2022-09-21T21:52:38.393Z,55.61
2022-09-21T21:55:07.494Z,55.80
2022-09-21T21:57:35.694Z,55.59
2022-09-21T22:00:06.493Z,55.33
2022-09-21T22:02:35.000Z,54.93
2022-09-21T22:05:02.971Z,55.16
2022-09-21T22:07:30.870Z,55.73
2022-09-21T22:09:59.147Z,55.77
2022-09-21T22:12:27.032Z,55.56
2022-09-21T22:14:55.250Z,55.39
2022-09-21T22:17:24.579Z,55.47
2022-09-21T22:19:54.041Z,55.89
2022-09-21T22:22:22.094Z,55.53
2022-09-21T22:24:50.102Z,55.53
2022-09-21T22:27:18.021Z,55.82
2022-09-21T22:29:45.994Z,55.75
2022-09-21T22:32:14.553Z,55.54
2022-09-21T22:34:43.762Z,55.66
2022-09-21T22:37:11.561Z,55.58
2022-09-21T22:39:39.494Z,55.23
2022-09-21T22:42:07.426Z,55.39
2022-09-21T22:44:35.808Z,55.95
2022-09-21T22:47:03.568Z,56.02
2022-09-21T22:49:31.616Z,55.71
2022-09-21T22:52:01.308Z,55.82
2022-09-21T22:54:29.513Z,55.63
2022-09-21T22:56:57.396Z,55.96
2022-09-21T22:59:25.958Z,55.67
2022-09-21T23:01:54.722Z,55.57
2022-09-21T23:04:23.174Z,56.01
2022-09-21T23:06:51.992Z,55.57
2022-09-21T23:09:22.490Z,56.09
2022-09-21T23:11:54.220Z,56.14
2022-09-21T23:14:23.379Z,55.88
2022-09-21T23:16:52.001Z,55.77
2022-09-21T23:19:20.191Z,56.05
2022-09-21T23:21:50.718Z,55.43
2022-09-21T23:24:20.407Z,55.80
2022-09-21T23:26:51.704Z,56.46
2022-09-21T23:29:20.156Z,55.89
2022-09-21T23:31:48.286Z,56.01
2022-09-21T23:34:17.576Z,56.22
2022-09-21T23:36:46.866Z,56.00
2022-09-21T23:39:16.823Z,56.09
2022-09-21T23:41:45.232Z,55.73
2022-09-21T23:44:15.015Z,56.47
2022-09-21T23:46:43.205Z,56.13
2022-09-21T23:49:11.391Z,56.40
2022-09-21T23:51:39.743Z,55.89
2022-09-21T23:54:08.028Z,55.99
2022-09-21T23:56:37.481Z,55.91
2022-09-21T23:59:05.519Z,56.08
